createdAt,value
2022-10-16T14:31:59.381Z,0.70
2022-10-16T14:35:26.815Z,0.70
2022-10-16T14:38:54.288Z,0.32
2022-10-16T14:42:21.745Z,0.50
2022-10-16T14:45:49.190Z,0.52
2022-10-16T14:49:16.639Z,0.30
2022-10-16T14:52:44.117Z,0.55
2022-10-16T14:56:11.553Z,0.50
2022-10-16T14:59:39.021Z,0.45
2022-10-16T15:03:06.532Z,0.30
2022-10-16T15:06:33.964Z,0.50
2022-10-16T15:10:01.432Z,0.45
2022-10-16T15:13:28.911Z,0.28
2022-10-16T15:16:56.389Z,0.60
2022-10-16T15:20:23.851Z,0.65
2022-10-16T15:23:51.312Z,0.68
2022-10-16T15:27:18.751Z,0.65
2022-10-16T21:33:27.400Z,1.50
2022-10-16T21:36:54.878Z,1.45
2022-10-16T21:40:22.396Z,1.55
2022-10-16T21:43:49.900Z,1.83
2022-10-16T21:47:17.375Z,0.98
2022-10-16T21:50:44.906Z,1.58
2022-10-16T21:54:12.369Z,2.23
2022-10-16T21:57:39.810Z,1.48
2022-10-16T22:01:07.298Z,1.60
2022-10-16T22:04:34.807Z,1.65
2022-10-16T22:08:02.236Z,1.90
2022-10-16T22:11:29.720Z,1.17
2022-10-16T22:14:57.208Z,1.65
2022-10-16T22:18:24.669Z,2.08
2022-10-16T22:21:52.135Z,1.63
2022-10-16T22:25:19.594Z,0.80
2022-10-16T22:28:47.070Z,1.50
2022-10-16T22:32:14.587Z,1.80
2022-10-16T22:35:42.024Z,1.70
2022-10-16T22:39:09.467Z,1.90
2022-10-16T22:42:36.950Z,2.15
2022-10-16T22:46:04.440Z,1.85
2022-10-16T22:49:31.931Z,1.55
2022-10-16T22:52:59.397Z,2.25
2022-10-16T22:56:26.840Z,2.03
2022-10-16T22:59:54.313Z,1.88
2022-10-16T23:03:21.923Z,2.00
2022-10-16T23:06:49.450Z,2.07
2022-10-16T23:10:16.943Z,2.33
2022-10-16T23:13:44.430Z,2.10
2022-10-16T23:17:11.869Z,1.70
2022-10-16T23:20:39.323Z,2.35
2022-10-16T23:24:06.793Z,1.40
2022-10-16T23:27:34.242Z,1.73
